createdAt,value
2023-09-21T00:00:14.998Z,2.17
2023-09-21T00:01:39.579Z,2.30
2023-09-21T00:03:02.250Z,2.70
2023-09-21T00:04:24.481Z,2.10
2023-09-21T00:05:48.710Z,2.00
2023-09-21T00:07:11.409Z,2.00
2023-09-21T00:08:34.410Z,1.97
2023-09-21T00:09:56.554Z,2.10
2023-09-21T00:11:19.721Z,2.30
2023-09-21T00:12:43.163Z,2.30
2023-09-21T00:14:05.456Z,2.60
2023-09-21T00:15:30.877Z,2.07
2023-09-21T00:16:53.046Z,2.50
2023-09-21T00:18:15.717Z,2.30
2023-09-21T00:19:37.861Z,2.00
2023-09-21T00:21:02.885Z,2.30
2023-09-21T00:22:29.111Z,2.13
2023-09-21T00:23:52.053Z,2.00
2023-09-21T00:25:15.884Z,2.27
2023-09-21T00:26:38.128Z,2.40
2023-09-21T00:28:00.368Z,2.00
2023-09-21T00:29:22.502Z,2.13
2023-09-21T00:30:44.635Z,1.90
2023-09-21T00:32:06.821Z,2.20
2023-09-21T00:33:30.928Z,1.87
2023-09-21T00:34:53.398Z,2.30
2023-09-21T00:36:18.882Z,2.00
2023-09-21T00:37:41.768Z,1.63
2023-09-21T00:39:05.256Z,2.40
2023-09-21T00:40:27.787Z,2.50
2023-09-21T00:41:49.995Z,2.13
2023-09-21T00:43:26.156Z,2.40
2023-09-21T00:44:48.436Z,2.30
2023-09-21T00:46:11.225Z,2.23
2023-09-21T00:47:33.710Z,2.13
2023-09-21T00:48:56.649Z,1.93
2023-09-21T00:50:22.180Z,2.00
2023-09-21T00:51:44.609Z,1.93
2023-09-21T00:53:06.912Z,1.87
2023-09-21T00:54:29.600Z,2.53
2023-09-21T00:55:55.272Z,2.67
2023-09-21T00:57:17.455Z,2.23
2023-09-21T00:58:46.791Z,2.53
2023-09-21T01:00:17.572Z,2.30
2023-09-21T01:01:39.932Z,2.30
2023-09-21T01:03:13.302Z,2.53
2023-09-21T01:04:36.401Z,2.23
2023-09-21T01:05:58.740Z,1.90
2023-09-21T01:07:23.573Z,2.60
2023-09-21T01:08:46.333Z,2.10
2023-09-21T01:10:09.138Z,2.00
2023-09-21T01:11:31.554Z,2.40
2023-09-21T01:12:54.800Z,2.70
2023-09-21T01:14:16.880Z,2.27
2023-09-21T01:15:42.874Z,1.87
2023-09-21T01:17:05.011Z,1.70
2023-09-21T01:18:27.608Z,1.87
2023-09-21T01:19:52.314Z,2.73
2023-09-21T01:21:18.926Z,2.30
2023-09-21T01:22:42.566Z,2.43
2023-09-21T01:24:05.925Z,2.07
2023-09-21T01:25:28.196Z,2.10
2023-09-21T01:26:50.598Z,2.10
2023-09-21T01:28:18.248Z,2.00
2023-09-21T01:29:40.527Z,2.37
2023-09-21T01:31:03.344Z,2.03
2023-09-21T01:32:25.577Z,2.20
2023-09-21T01:33:48.326Z,2.37
2023-09-21T01:35:10.942Z,2.20
2023-09-21T01:36:33.633Z,2.20
2023-09-21T01:37:56.210Z,2.30
2023-09-21T01:39:18.537Z,2.00
2023-09-21T01:40:42.360Z,2.47
2023-09-21T01:42:04.520Z,1.97
2023-09-21T01:43:27.109Z,1.63
2023-09-21T01:44:50.288Z,2.30
2023-09-21T01:46:13.462Z,2.30
2023-09-21T01:47:37.527Z,2.53
2023-09-21T01:48:59.786Z,2.47
2023-09-21T01:50:22.415Z,2.40
2023-09-21T01:51:45.546Z,2.10
2023-09-21T01:53:10.648Z,2.33
2023-09-21T01:54:33.389Z,2.37
2023-09-21T01:55:55.648Z,2.40
2023-09-21T01:57:18.634Z,1.93
2023-09-21T01:58:41.541Z,2.43
2023-09-21T02:00:20.727Z,2.20
2023-09-21T02:03:07.805Z,2.37
2023-09-21T02:04:30.048Z,2.10
2023-09-21T02:05:52.329Z,2.10
2023-09-21T02:07:16.024Z,2.10
2023-09-21T02:08:39.360Z,2.20
2023-09-21T02:10:02.544Z,2.43
2023-09-21T02:11:25.163Z,2.30
2023-09-21T02:12:58.415Z,2.10
2023-09-21T02:14:21.100Z,2.47
2023-09-21T02:15:44.980Z,2.20
2023-09-21T02:17:07.105Z,2.63
2023-09-21T02:18:31.409Z,2.30
2023-09-21T02:19:53.785Z,2.67
2023-09-21T02:21:18.690Z,2.63
2023-09-21T02:22:49.048Z,2.10
2023-09-21T02:24:11.210Z,2.60
2023-09-21T02:25:41.410Z,2.13
2023-09-21T02:27:04.851Z,2.83
2023-09-21T02:28:27.001Z,2.80
2023-09-21T02:29:49.139Z,2.30
2023-09-21T02:31:12.727Z,2.13
2023-09-21T02:32:35.115Z,2.40
2023-09-21T02:33:57.229Z,2.40
2023-09-21T02:35:24.832Z,3.10
2023-09-21T02:36:47.527Z,2.87
2023-09-21T02:38:10.969Z,2.40
2023-09-21T02:39:34.551Z,2.63
2023-09-21T02:40:56.686Z,2.47
2023-09-21T02:42:19.421Z,2.80
2023-09-21T02:43:41.817Z,2.83
2023-09-21T02:45:06.150Z,2.30
2023-09-21T02:46:31.628Z,2.60
2023-09-21T02:48:01.202Z,2.17
2023-09-21T02:49:23.428Z,2.47
2023-09-21T02:50:49.116Z,2.67
2023-09-21T02:52:11.417Z,2.97
2023-09-21T02:53:33.820Z,2.47
2023-09-21T02:54:56.346Z,2.40
2023-09-21T02:56:21.192Z,3.03
2023-09-21T02:57:50.319Z,3.53
2023-09-21T02:59:14.782Z,1.90
2023-09-21T03:00:44.338Z,2.33
2023-09-21T03:02:10.413Z,2.60
2023-09-21T03:03:32.677Z,2.63
2023-09-21T03:06:06.016Z,2.50
2023-09-21T03:07:28.358Z,2.70
2023-09-21T03:08:50.737Z,2.20
2023-09-21T03:10:13.420Z,2.53
2023-09-21T03:11:35.674Z,1.70
2023-09-21T03:12:57.927Z,2.63
2023-09-21T03:14:21.176Z,2.03
2023-09-21T03:15:48.671Z,2.30
2023-09-21T03:17:10.925Z,2.07
2023-09-21T03:18:33.168Z,2.50
2023-09-21T03:19:56.255Z,2.40
2023-09-21T03:21:18.459Z,3.00
2023-09-21T03:22:42.974Z,2.43
2023-09-21T03:24:05.434Z,2.60
2023-09-21T03:25:29.191Z,3.00
2023-09-21T03:26:51.684Z,2.20
2023-09-21T03:28:19.281Z,2.67
2023-09-21T03:29:41.367Z,2.20
2023-09-21T03:31:03.496Z,2.43
2023-09-21T03:32:27.182Z,2.53
2023-09-21T03:33:49.518Z,2.40
2023-09-21T03:35:12.793Z,2.60
2023-09-21T03:36:39.130Z,2.40
2023-09-21T03:38:01.623Z,2.90
2023-09-21T03:39:27.456Z,2.70
2023-09-21T03:40:50.452Z,2.40
2023-09-21T03:42:12.799Z,3.03
2023-09-21T03:43:34.968Z,2.20
2023-09-21T03:44:57.130Z,2.40
2023-09-21T03:46:19.906Z,2.17
2023-09-21T03:47:43.318Z,2.67
2023-09-21T03:49:05.726Z,2.40
2023-09-21T03:50:29.031Z,2.40
2023-09-21T03:51:51.177Z,2.60
2023-09-21T03:53:13.282Z,2.37
2023-09-21T03:54:35.490Z,2.20
2023-09-21T03:55:57.598Z,2.90
2023-09-21T03:57:19.730Z,2.93
2023-09-21T03:58:42.211Z,3.10
2023-09-21T04:00:14.682Z,2.40
2023-09-21T04:01:38.044Z,2.47
2023-09-21T04:03:01.744Z,2.47
2023-09-21T04:04:24.515Z,2.70
2023-09-21T04:05:47.635Z,2.20
2023-09-21T04:07:09.839Z,2.77
2023-09-21T04:08:32.334Z,2.57
2023-09-21T04:09:54.418Z,2.40
2023-09-21T04:11:16.536Z,2.23
2023-09-21T04:12:42.185Z,2.50
2023-09-21T04:14:16.351Z,2.63
2023-09-21T04:15:40.614Z,2.80
2023-09-21T04:17:04.038Z,2.80
2023-09-21T04:18:27.835Z,2.20
2023-09-21T04:19:53.935Z,2.07
2023-09-21T04:21:20.081Z,2.90
2023-09-21T04:22:43.911Z,2.43
2023-09-21T04:24:07.729Z,2.57
2023-09-21T04:25:29.885Z,2.60
2023-09-21T04:26:51.968Z,2.33
2023-09-21T04:28:15.217Z,2.73
2023-09-21T04:29:37.332Z,2.40
2023-09-21T04:31:02.568Z,2.53
2023-09-21T04:32:24.724Z,2.47
2023-09-21T04:33:46.859Z,2.77
2023-09-21T04:35:09.222Z,2.57
2023-09-21T04:36:31.523Z,2.90
2023-09-21T04:37:54.844Z,2.80
2023-09-21T04:39:17.087Z,2.50
2023-09-21T04:40:39.774Z,2.80
2023-09-21T04:42:01.937Z,2.50
2023-09-21T04:43:24.062Z,2.50
2023-09-21T04:44:46.263Z,2.90
2023-09-21T04:46:08.457Z,3.03
2023-09-21T04:47:30.685Z,2.57
2023-09-21T04:48:52.873Z,2.83
2023-09-21T04:50:17.027Z,2.67
2023-09-21T04:51:39.814Z,2.97
2023-09-21T04:53:02.116Z,2.73
2023-09-21T04:54:24.437Z,2.50
2023-09-21T04:55:47.309Z,2.90
2023-09-21T04:57:09.726Z,2.50
2023-09-21T04:58:31.924Z,3.20
2023-09-21T04:59:55.248Z,2.37
2023-09-21T05:01:17.395Z,2.30
2023-09-21T05:02:39.530Z,2.53
2023-09-21T05:04:01.983Z,2.40
2023-09-21T05:05:27.886Z,2.70
2023-09-21T05:06:51.882Z,2.20
2023-09-21T05:08:14.483Z,2.80
2023-09-21T05:09:36.696Z,2.63
2023-09-21T05:10:58.772Z,2.10
2023-09-21T05:12:21.614Z,2.87
2023-09-21T05:13:43.968Z,2.67
2023-09-21T05:15:08.378Z,2.40
2023-09-21T05:16:30.535Z,2.60
2023-09-21T05:17:52.773Z,2.33
2023-09-21T05:19:15.486Z,2.30
2023-09-21T05:20:38.214Z,2.90
2023-09-21T05:22:05.662Z,2.53
2023-09-21T05:23:27.785Z,2.60
2023-09-21T05:24:50.254Z,2.60
2023-09-21T05:26:12.943Z,2.40
2023-09-21T05:27:35.123Z,2.80
2023-09-21T05:28:57.269Z,2.30
2023-09-21T05:30:20.333Z,2.57
2023-09-21T05:31:42.708Z,2.20
2023-09-21T05:33:05.020Z,2.13
2023-09-21T05:34:30.039Z,2.77
2023-09-21T05:35:55.249Z,2.83
2023-09-21T05:37:18.055Z,3.03
2023-09-21T05:38:40.798Z,2.30
2023-09-21T05:40:07.232Z,2.67
2023-09-21T05:41:30.062Z,2.73
2023-09-21T05:42:52.145Z,2.83
2023-09-21T05:44:14.656Z,2.70
2023-09-21T05:45:36.850Z,2.40
2023-09-21T05:46:59.016Z,2.70
2023-09-21T05:48:21.318Z,2.73
2023-09-21T05:49:44.778Z,2.83
2023-09-21T05:51:07.276Z,2.37
2023-09-21T05:52:31.460Z,2.60
2023-09-21T05:53:54.125Z,2.30
2023-09-21T05:55:17.865Z,3.30
2023-09-21T05:56:40.262Z,2.30
2023-09-21T05:58:02.455Z,2.50
2023-09-21T05:59:26.012Z,2.63
2023-09-21T06:00:50.730Z,2.60
2023-09-21T06:02:14.767Z,2.40
2023-09-21T06:03:37.377Z,3.43
2023-09-21T06:04:59.682Z,2.37
2023-09-21T06:06:21.899Z,2.43
2023-09-21T06:07:44.029Z,4.33
2023-09-21T06:09:09.060Z,3.10
2023-09-21T06:10:31.668Z,2.70
2023-09-21T06:11:53.857Z,2.50
2023-09-21T06:13:15.958Z,2.70
2023-09-21T06:14:38.493Z,2.27
2023-09-21T06:16:03.760Z,2.57
2023-09-21T06:17:26.004Z,2.57
2023-09-21T06:18:49.575Z,2.00
2023-09-21T06:20:12.680Z,2.40
2023-09-21T06:21:36.706Z,2.60
2023-09-21T06:22:58.795Z,2.83
2023-09-21T06:24:21.288Z,2.30
2023-09-21T06:25:44.551Z,2.63
2023-09-21T06:27:06.734Z,3.00
2023-09-21T06:28:29.880Z,2.40
2023-09-21T06:29:52.125Z,2.93
2023-09-21T06:31:14.948Z,3.03
2023-09-21T06:32:37.101Z,2.70
2023-09-21T06:34:00.278Z,2.50
2023-09-21T06:35:26.018Z,2.60
2023-09-21T06:36:48.172Z,3.40
2023-09-21T06:38:10.311Z,2.77
2023-09-21T06:39:32.456Z,2.50
2023-09-21T06:40:54.563Z,2.93
2023-09-21T06:42:16.703Z,2.37
2023-09-21T06:43:42.824Z,2.60
2023-09-21T06:45:06.870Z,2.90
2023-09-21T06:46:29.690Z,2.50
2023-09-21T06:47:51.971Z,2.80
2023-09-21T06:49:14.312Z,2.87
2023-09-21T06:50:38.433Z,2.87
2023-09-21T06:52:00.648Z,2.67
2023-09-21T06:53:24.564Z,3.00
2023-09-21T06:54:46.981Z,2.80
2023-09-21T06:56:09.151Z,2.80
2023-09-21T06:57:32.668Z,2.63
2023-09-21T06:58:54.795Z,2.90
2023-09-21T07:00:17.121Z,3.03
2023-09-21T07:01:41.004Z,3.17
2023-09-21T07:03:03.456Z,2.87
2023-09-21T07:04:29.275Z,2.70
2023-09-21T07:05:52.558Z,2.37
2023-09-21T07:07:16.900Z,2.70
2023-09-21T07:08:39.060Z,2.90
2023-09-21T07:10:01.691Z,3.17
2023-09-21T07:11:23.882Z,2.47
2023-09-21T07:12:46.309Z,2.60
2023-09-21T07:14:08.454Z,2.87
2023-09-21T07:15:31.057Z,2.93
2023-09-21T07:16:55.945Z,2.20
2023-09-21T07:18:19.061Z,2.40
2023-09-21T07:19:41.537Z,2.47
2023-09-21T07:21:04.049Z,3.27
2023-09-21T07:22:26.176Z,2.70
2023-09-21T07:23:48.348Z,2.83
2023-09-21T07:25:11.420Z,2.60
2023-09-21T07:26:33.715Z,2.67
2023-09-21T07:27:56.584Z,2.43
2023-09-21T07:29:18.741Z,2.60
2023-09-21T07:30:41.074Z,2.50
2023-09-21T07:32:03.236Z,2.80
2023-09-21T07:33:26.348Z,2.67
2023-09-21T07:34:51.724Z,2.80
2023-09-21T07:36:15.688Z,2.93
2023-09-21T07:37:37.815Z,2.53
2023-09-21T07:39:00.161Z,2.63
2023-09-21T07:40:23.032Z,2.20
2023-09-21T07:41:48.091Z,2.93
2023-09-21T07:43:12.075Z,3.23
2023-09-21T07:44:34.288Z,2.53
2023-09-21T07:45:58.306Z,2.13
2023-09-21T07:47:20.401Z,2.63
2023-09-21T07:48:42.994Z,3.70
2023-09-21T07:50:10.517Z,3.00
2023-09-21T07:51:35.884Z,2.90
2023-09-21T07:52:58.050Z,2.63
2023-09-21T07:54:20.911Z,3.30
2023-09-21T07:55:43.245Z,2.97
2023-09-21T07:57:06.068Z,2.53
2023-09-21T07:58:28.280Z,2.90
2023-09-21T07:59:50.546Z,2.50
2023-09-21T08:01:12.618Z,2.90
2023-09-21T08:02:34.757Z,3.03
2023-09-21T08:03:57.187Z,2.80
2023-09-21T08:05:19.672Z,2.73
2023-09-21T08:06:42.009Z,2.70
2023-09-21T08:08:06.790Z,2.67
2023-09-21T08:09:32.715Z,3.33
2023-09-21T08:10:55.399Z,2.80
2023-09-21T08:12:17.738Z,2.80
2023-09-21T08:13:40.735Z,2.60
2023-09-21T08:15:02.977Z,2.20
2023-09-21T08:16:25.130Z,2.53
2023-09-21T08:17:47.707Z,2.53
2023-09-21T08:19:09.793Z,2.33
2023-09-21T08:20:31.900Z,2.23
2023-09-21T08:21:54.040Z,2.43
2023-09-21T08:23:18.325Z,2.60
2023-09-21T08:24:42.679Z,3.00
2023-09-21T08:26:05.044Z,2.50
2023-09-21T08:27:30.100Z,2.27
2023-09-21T08:28:53.666Z,2.53
2023-09-21T08:30:17.149Z,2.50
2023-09-21T08:31:41.420Z,2.00
2023-09-21T08:33:04.706Z,2.40
2023-09-21T08:34:26.869Z,2.37
2023-09-21T08:35:49.655Z,2.30
2023-09-21T08:37:12.261Z,2.63
2023-09-21T08:38:35.160Z,2.47
2023-09-21T08:39:57.448Z,2.20
2023-09-21T08:41:19.619Z,3.00
2023-09-21T08:42:44.527Z,2.50
2023-09-21T08:44:08.762Z,2.93
2023-09-21T08:45:31.859Z,2.50
2023-09-21T08:46:56.086Z,2.50
2023-09-21T08:48:23.999Z,2.30
2023-09-21T08:49:48.491Z,2.67
2023-09-21T08:51:16.299Z,2.37
2023-09-21T08:52:40.873Z,2.07
2023-09-21T08:54:05.069Z,2.60
2023-09-21T08:55:27.323Z,2.40
2023-09-21T08:56:56.218Z,2.27
2023-09-21T08:58:25.229Z,2.33
2023-09-21T08:59:49.250Z,2.50
2023-09-21T09:01:12.272Z,2.30
2023-09-21T09:02:36.634Z,2.23
2023-09-21T09:04:00.042Z,2.40
2023-09-21T09:06:42.477Z,2.50
2023-09-21T09:08:05.072Z,2.27
2023-09-21T09:09:27.791Z,2.10
2023-09-21T09:10:51.403Z,2.03
2023-09-21T09:12:23.496Z,2.30
2023-09-21T09:13:48.903Z,2.20
2023-09-21T09:15:11.883Z,2.30
2023-09-21T09:16:35.114Z,2.30
2023-09-21T09:18:04.369Z,1.70
2023-09-21T09:19:28.324Z,2.27
2023-09-21T09:20:53.144Z,2.20
2023-09-21T09:22:18.105Z,2.00
2023-09-21T09:23:43.092Z,1.70
2023-09-21T09:25:07.075Z,2.10
2023-09-21T09:26:29.598Z,1.80
2023-09-21T09:27:51.807Z,2.30
2023-09-21T09:29:18.289Z,2.47
2023-09-21T09:30:40.931Z,2.27
2023-09-21T09:32:06.805Z,2.00
2023-09-21T09:33:32.057Z,2.10
2023-09-21T09:34:54.817Z,1.73
2023-09-21T09:36:17.098Z,2.10
2023-09-21T09:37:39.246Z,2.27
2023-09-21T09:39:09.651Z,2.00
2023-09-21T09:40:35.074Z,1.97
2023-09-21T09:41:58.915Z,1.93
2023-09-21T09:43:22.648Z,1.70
2023-09-21T09:44:46.143Z,2.07
2023-09-21T09:46:13.153Z,1.93
2023-09-21T09:47:38.302Z,2.30
2023-09-21T09:49:02.877Z,2.03
2023-09-21T09:50:26.091Z,2.27
2023-09-21T09:51:51.364Z,2.20
2023-09-21T09:53:14.782Z,1.90
2023-09-21T09:54:37.514Z,1.70
2023-09-21T09:56:01.636Z,1.77
2023-09-21T09:57:24.923Z,2.10
2023-09-21T09:58:48.497Z,1.97
2023-09-21T10:00:21.473Z,1.87
2023-09-21T10:01:45.434Z,2.33
2023-09-21T10:03:10.822Z,2.20
2023-09-21T10:04:34.673Z,1.50
2023-09-21T10:05:58.493Z,1.70
2023-09-21T10:07:20.661Z,2.00
2023-09-21T10:08:43.055Z,1.80
2023-09-21T10:10:08.403Z,1.93
2023-09-21T10:11:31.237Z,2.10
2023-09-21T10:12:54.505Z,1.77
2023-09-21T10:14:18.879Z,1.53
2023-09-21T10:15:44.714Z,1.97
2023-09-21T10:17:07.284Z,1.60
2023-09-21T10:18:31.130Z,1.67
2023-09-21T10:20:12.596Z,1.83
2023-09-21T10:21:39.523Z,1.80
2023-09-21T10:23:06.720Z,1.70
2023-09-21T10:24:33.170Z,1.87
2023-09-21T10:25:57.174Z,1.87
2023-09-21T10:27:25.522Z,2.00
2023-09-21T10:28:52.486Z,1.60
2023-09-21T10:30:20.136Z,1.83
2023-09-21T10:31:47.422Z,2.27
2023-09-21T10:33:12.346Z,1.40
2023-09-21T10:34:34.563Z,1.77
2023-09-21T10:35:56.704Z,1.90
2023-09-21T10:37:27.911Z,1.80
2023-09-21T10:39:25.817Z,1.90
2023-09-21T10:40:48.334Z,1.67
2023-09-21T10:42:10.741Z,1.90
2023-09-21T10:43:38.775Z,1.50
2023-09-21T10:45:05.868Z,1.60
2023-09-21T10:46:32.506Z,1.70
2023-09-21T10:47:55.331Z,1.73
2023-09-21T10:49:19.263Z,1.80
2023-09-21T10:50:42.031Z,2.20
2023-09-21T10:52:04.438Z,1.70
2023-09-21T10:53:26.754Z,2.00
2023-09-21T10:54:49.264Z,1.80
2023-09-21T10:56:11.384Z,1.80
2023-09-21T10:57:34.001Z,1.80
2023-09-21T10:58:56.385Z,1.73
2023-09-21T11:00:27.029Z,1.77
2023-09-21T11:01:50.388Z,1.90
2023-09-21T11:03:12.897Z,1.70
2023-09-21T11:04:36.314Z,2.27
2023-09-21T11:05:58.780Z,1.90
2023-09-21T11:07:22.709Z,2.20
2023-09-21T11:08:51.079Z,2.03
2023-09-21T11:10:13.448Z,2.33
2023-09-21T11:11:36.220Z,2.07
2023-09-21T11:12:58.738Z,1.87
2023-09-21T11:14:24.003Z,2.07
2023-09-21T11:15:47.213Z,1.90
2023-09-21T11:17:14.824Z,1.90
2023-09-21T11:18:37.574Z,1.90
2023-09-21T11:20:00.816Z,1.97
2023-09-21T11:21:25.947Z,1.77
2023-09-21T11:22:50.249Z,1.93
2023-09-21T11:24:12.564Z,1.77
2023-09-21T11:25:34.828Z,1.90
2023-09-21T11:26:57.023Z,1.70
2023-09-21T11:28:23.896Z,1.90
2023-09-21T11:29:47.586Z,2.13
2023-09-21T11:31:10.002Z,1.70
2023-09-21T11:32:40.699Z,1.60
2023-09-21T11:34:08.531Z,1.80
2023-09-21T11:35:31.978Z,1.80
2023-09-21T11:36:54.149Z,1.80
2023-09-21T11:38:16.425Z,1.90
2023-09-21T11:39:47.449Z,1.50
2023-09-21T11:41:10.165Z,1.30
2023-09-21T11:42:34.533Z,1.47
2023-09-21T11:43:57.262Z,1.60
2023-09-21T11:45:21.478Z,1.40
2023-09-21T11:46:45.226Z,1.80
2023-09-21T11:48:08.271Z,1.80
2023-09-21T11:49:45.027Z,1.70
2023-09-21T11:51:08.831Z,1.60
2023-09-21T11:52:32.475Z,1.70
2023-09-21T11:53:54.659Z,2.10
2023-09-21T11:55:16.917Z,1.40
2023-09-21T11:56:39.348Z,1.60
2023-09-21T11:58:14.948Z,1.40
2023-09-21T11:59:43.381Z,1.83
2023-09-21T12:01:05.791Z,1.63
2023-09-21T12:02:28.046Z,2.10
2023-09-21T12:03:53.608Z,1.97
2023-09-21T12:05:16.208Z,1.60
2023-09-21T12:06:38.434Z,2.10
2023-09-21T12:08:00.789Z,1.50
2023-09-21T12:09:23.540Z,1.60
2023-09-21T12:10:49.316Z,1.80
2023-09-21T12:12:14.562Z,1.60
2023-09-21T12:13:38.531Z,1.83
2023-09-21T12:15:00.739Z,1.60
2023-09-21T12:16:23.002Z,1.23
2023-09-21T12:17:46.265Z,1.50
2023-09-21T12:19:09.843Z,1.97
2023-09-21T12:20:32.849Z,1.60
2023-09-21T12:21:57.268Z,2.60
2023-09-21T12:23:19.580Z,2.10
2023-09-21T12:24:41.657Z,1.43
2023-09-21T12:26:03.937Z,1.70
2023-09-21T12:27:26.094Z,2.13
2023-09-21T12:28:48.195Z,1.40
2023-09-21T12:30:13.963Z,1.87
2023-09-21T12:31:56.548Z,1.90
2023-09-21T12:33:39.080Z,1.63
2023-09-21T12:35:03.644Z,1.83
2023-09-21T12:36:42.317Z,1.70
2023-09-21T12:38:06.920Z,1.50
2023-09-21T12:39:29.070Z,1.57
2023-09-21T12:40:54.263Z,1.50
2023-09-21T12:42:16.672Z,1.77
2023-09-21T12:43:39.563Z,1.50
2023-09-21T12:45:02.618Z,1.60
2023-09-21T12:46:28.861Z,1.57
2023-09-21T12:47:51.611Z,1.43
2023-09-21T12:49:14.830Z,2.10
2023-09-21T12:50:37.444Z,1.57
2023-09-21T12:51:59.605Z,1.83
2023-09-21T12:53:22.023Z,1.77
2023-09-21T12:54:44.263Z,1.50
2023-09-21T12:56:06.793Z,1.50
2023-09-21T12:57:29.023Z,1.80
2023-09-21T12:58:51.815Z,1.33
2023-09-21T13:00:15.208Z,1.60
2023-09-21T13:01:38.488Z,1.40
2023-09-21T13:03:01.153Z,1.60
2023-09-21T13:04:24.547Z,1.50
2023-09-21T13:05:47.912Z,1.60
2023-09-21T13:07:10.027Z,1.37
2023-09-21T13:08:32.438Z,1.47
2023-09-21T13:09:54.551Z,1.40
2023-09-21T13:11:16.858Z,1.70
2023-09-21T13:12:40.849Z,1.40
2023-09-21T13:14:03.288Z,1.40
2023-09-21T13:15:27.561Z,1.40
2023-09-21T13:16:50.227Z,1.60
2023-09-21T13:18:15.174Z,1.60
2023-09-21T13:19:38.723Z,1.40
2023-09-21T13:21:01.132Z,1.50
2023-09-21T13:22:23.293Z,1.33
2023-09-21T13:23:45.714Z,1.33
2023-09-21T13:25:08.108Z,2.13
2023-09-21T13:26:30.267Z,1.83
2023-09-21T13:27:54.672Z,1.50
2023-09-21T13:29:18.919Z,1.60
2023-09-21T13:30:44.528Z,1.80
2023-09-21T13:32:07.164Z,1.60
2023-09-21T13:33:30.093Z,1.40
2023-09-21T13:34:53.796Z,1.50
2023-09-21T13:36:15.909Z,1.80
2023-09-21T13:37:38.125Z,1.50
2023-09-21T13:39:00.341Z,1.80
2023-09-21T13:40:23.310Z,1.57
2023-09-21T13:41:59.253Z,2.00
2023-09-21T13:43:23.001Z,1.17
2023-09-21T13:44:45.134Z,1.70
2023-09-21T13:46:10.963Z,1.30
2023-09-21T13:47:33.311Z,1.37
2023-09-21T13:48:57.377Z,1.70
2023-09-21T13:50:19.739Z,1.73
2023-09-21T13:51:43.157Z,1.90
2023-09-21T13:53:05.946Z,1.67
2023-09-21T13:54:28.622Z,1.50
2023-09-21T13:55:50.850Z,1.57
2023-09-21T13:57:13.016Z,1.43
2023-09-21T13:58:36.042Z,1.50
2023-09-21T13:59:58.795Z,1.50
2023-09-21T14:01:21.078Z,1.50
2023-09-21T14:02:47.850Z,1.47
2023-09-21T14:04:10.587Z,1.80
2023-09-21T14:05:34.398Z,1.33
2023-09-21T14:06:56.702Z,1.60
2023-09-21T14:08:23.445Z,1.57
2023-09-21T14:09:45.830Z,1.70
2023-09-21T14:11:08.033Z,1.53
2023-09-21T14:12:33.228Z,1.93
2023-09-21T14:13:55.382Z,1.40
2023-09-21T14:15:18.350Z,1.30
2023-09-21T14:16:40.614Z,1.60
2023-09-21T14:18:04.282Z,1.50
2023-09-21T14:19:26.469Z,1.83
2023-09-21T14:20:48.634Z,1.43
2023-09-21T14:22:11.533Z,1.70
2023-09-21T14:23:34.376Z,1.63
2023-09-21T14:24:56.503Z,1.60
2023-09-21T14:26:18.617Z,1.50
2023-09-21T14:27:40.750Z,2.07
2023-09-21T14:29:03.062Z,1.73
2023-09-21T14:30:25.398Z,2.20
2023-09-21T14:31:47.741Z,1.80
2023-09-21T14:33:10.076Z,1.60
2023-09-21T14:34:35.011Z,2.03
2023-09-21T14:35:57.787Z,1.57
2023-09-21T14:37:20.020Z,2.50
2023-09-21T14:38:42.283Z,1.60
2023-09-21T14:40:07.022Z,1.50
2023-09-21T14:41:29.550Z,2.17
2023-09-21T14:42:51.722Z,1.63
2023-09-21T14:44:13.832Z,1.80
2023-09-21T14:45:36.188Z,1.53
2023-09-21T14:46:58.345Z,1.60
2023-09-21T14:48:20.634Z,1.50
2023-09-21T14:49:42.902Z,1.60
2023-09-21T14:51:05.119Z,1.53
2023-09-21T14:52:27.391Z,1.90
2023-09-21T14:53:52.765Z,1.73
2023-09-21T14:55:16.023Z,1.83
2023-09-21T14:56:38.345Z,1.20
2023-09-21T14:58:01.991Z,1.77
2023-09-21T14:59:24.877Z,1.67
2023-09-21T15:00:47.116Z,1.60
2023-09-21T15:02:12.026Z,1.40
2023-09-21T15:03:35.412Z,1.63
2023-09-21T15:04:57.785Z,1.70
2023-09-21T15:06:20.019Z,1.90
2023-09-21T15:07:42.823Z,1.73
2023-09-21T15:09:05.855Z,1.50
2023-09-21T15:10:32.097Z,1.83
2023-09-21T15:11:55.691Z,1.70
2023-09-21T15:13:19.058Z,1.70
2023-09-21T15:14:41.274Z,1.60
2023-09-21T15:16:03.493Z,1.87
2023-09-21T15:17:25.738Z,1.60
2023-09-21T15:18:48.017Z,1.80
2023-09-21T15:20:10.376Z,1.53
2023-09-21T15:21:32.572Z,1.43
2023-09-21T15:22:55.205Z,1.80
2023-09-21T15:24:17.388Z,1.60
2023-09-21T15:25:40.456Z,1.70
2023-09-21T15:27:03.143Z,1.80
2023-09-21T15:28:26.194Z,1.97
2023-09-21T15:29:48.882Z,1.60
2023-09-21T15:31:11.589Z,1.60
2023-09-21T15:32:33.927Z,2.10
2023-09-21T15:33:56.269Z,1.80
2023-09-21T15:35:18.527Z,2.00
2023-09-21T15:36:42.624Z,1.50
2023-09-21T15:38:04.978Z,1.53
2023-09-21T15:39:27.707Z,1.60
2023-09-21T15:40:49.969Z,2.20
2023-09-21T15:42:12.505Z,2.33
2023-09-21T15:43:34.751Z,1.63
2023-09-21T15:44:56.914Z,2.10
2023-09-21T15:46:19.071Z,1.80
2023-09-21T15:47:41.411Z,1.50
2023-09-21T15:49:05.573Z,1.77
2023-09-21T15:50:28.329Z,1.73
2023-09-21T15:51:50.547Z,1.70
2023-09-21T15:53:13.369Z,1.43
2023-09-21T15:54:35.867Z,1.33
2023-09-21T15:55:58.120Z,1.77
2023-09-21T15:57:20.511Z,1.70
2023-09-21T15:58:42.878Z,1.70
2023-09-21T16:00:05.545Z,1.80
2023-09-21T16:01:28.450Z,1.80
2023-09-21T16:02:50.680Z,2.23
2023-09-21T16:04:15.979Z,2.50
2023-09-21T16:05:38.492Z,2.17
2023-09-21T16:07:00.697Z,1.83
2023-09-21T16:08:25.203Z,1.77
2023-09-21T16:09:47.358Z,1.63
2023-09-21T16:11:09.516Z,2.10
2023-09-21T16:12:31.845Z,1.63
2023-09-21T16:13:53.996Z,1.60
2023-09-21T16:15:16.084Z,1.97
2023-09-21T16:16:38.462Z,1.90
2023-09-21T16:18:00.641Z,1.80
2023-09-21T16:19:22.964Z,1.77
2023-09-21T16:20:45.613Z,1.60
2023-09-21T16:22:07.811Z,2.23
2023-09-21T16:23:32.051Z,1.70
2023-09-21T16:24:54.847Z,1.80
2023-09-21T16:26:17.025Z,1.97
2023-09-21T16:27:39.190Z,2.20
2023-09-21T16:29:04.398Z,1.70
2023-09-21T16:30:26.615Z,1.77
2023-09-21T16:31:48.831Z,1.97
2023-09-21T16:33:11.784Z,1.80
2023-09-21T16:34:33.993Z,1.70
2023-09-21T16:36:01.776Z,2.03
2023-09-21T16:37:24.130Z,2.10
2023-09-21T16:38:47.106Z,2.27
2023-09-21T16:40:09.840Z,2.00
2023-09-21T16:41:32.205Z,2.13
2023-09-21T16:42:54.339Z,2.13
2023-09-21T16:44:16.458Z,2.10
2023-09-21T16:45:41.830Z,2.17
2023-09-21T16:47:04.110Z,1.73
2023-09-21T16:48:27.002Z,2.20
2023-09-21T16:49:49.134Z,2.20
2023-09-21T16:51:11.317Z,2.40
2023-09-21T16:52:33.425Z,2.07
2023-09-21T16:53:55.555Z,1.80
2023-09-21T16:55:17.740Z,1.80
2023-09-21T16:56:39.867Z,2.30
2023-09-21T16:58:02.076Z,1.90
2023-09-21T16:59:24.443Z,2.50
2023-09-21T17:00:46.773Z,2.13
2023-09-21T17:02:11.547Z,2.23
2023-09-21T17:03:33.929Z,2.03
2023-09-21T17:04:56.493Z,2.43
2023-09-21T17:06:18.696Z,1.70
2023-09-21T17:07:40.924Z,2.27
2023-09-21T17:09:03.897Z,1.97
2023-09-21T17:10:26.587Z,2.47
2023-09-21T17:11:48.762Z,2.47
2023-09-21T17:13:11.687Z,1.97
2023-09-21T17:14:33.757Z,2.10
2023-09-21T17:15:55.972Z,2.13
2023-09-21T17:17:22.492Z,2.27
2023-09-21T17:18:44.952Z,1.93
2023-09-21T17:20:08.354Z,1.93
2023-09-21T17:21:31.969Z,1.60
2023-09-21T17:22:54.245Z,2.10
2023-09-21T17:24:16.420Z,1.70
2023-09-21T17:25:38.550Z,1.80
2023-09-21T17:27:00.638Z,2.20
2023-09-21T17:28:22.729Z,1.80
2023-09-21T17:29:45.227Z,1.97
2023-09-21T17:31:12.308Z,1.70
2023-09-21T17:32:34.788Z,2.10
2023-09-21T17:33:57.451Z,1.93
2023-09-21T17:35:19.819Z,1.70
2023-09-21T17:36:41.967Z,2.10
2023-09-21T17:38:04.312Z,1.70
2023-09-21T17:39:26.854Z,1.80
2023-09-21T17:40:49.239Z,2.50
2023-09-21T17:42:11.471Z,2.37
2023-09-21T17:43:33.771Z,2.53
2023-09-21T17:44:55.932Z,2.10
2023-09-21T17:46:18.059Z,2.03
2023-09-21T17:47:40.692Z,2.00
2023-09-21T17:49:02.982Z,2.27
2023-09-21T17:50:26.038Z,2.20
2023-09-21T17:51:48.297Z,1.73
2023-09-21T17:53:10.779Z,2.30
2023-09-21T17:54:34.452Z,2.00
2023-09-21T17:55:57.247Z,2.10
2023-09-21T17:57:19.477Z,1.73
2023-09-21T17:58:41.657Z,1.83
2023-09-21T18:00:07.228Z,2.20
2023-09-21T18:01:30.296Z,2.17
2023-09-21T18:02:53.367Z,2.43
2023-09-21T18:04:19.017Z,2.33
2023-09-21T18:05:41.307Z,1.90
2023-09-21T18:07:03.693Z,2.13
2023-09-21T18:08:25.975Z,2.10
2023-09-21T18:09:48.059Z,2.20
2023-09-21T18:11:10.421Z,2.20
2023-09-21T18:12:32.797Z,2.30
2023-09-21T18:13:55.240Z,2.10
2023-09-21T18:15:17.340Z,2.27
2023-09-21T18:16:39.640Z,2.23
2023-09-21T18:18:03.190Z,1.73
2023-09-21T18:19:27.274Z,2.57
2023-09-21T18:20:51.199Z,2.50
2023-09-21T18:22:13.375Z,2.37
2023-09-21T18:23:39.790Z,2.20
2023-09-21T18:25:02.395Z,2.20
2023-09-21T18:26:24.706Z,2.33
2023-09-21T18:27:46.915Z,2.40
2023-09-21T18:29:11.572Z,2.20
2023-09-21T18:30:33.781Z,2.30
2023-09-21T18:31:56.067Z,2.63
2023-09-21T18:33:18.443Z,2.13
2023-09-21T18:34:40.594Z,2.47
2023-09-21T18:36:02.809Z,2.70